createdAt,value
2023-01-18T00:00:32.626Z,2.9
2023-01-18T00:01:39.854Z,2.9
2023-01-18T00:02:46.266Z,3
2023-01-18T00:03:53.659Z,3
2023-01-18T00:05:00.526Z,3
2023-01-18T00:06:07.622Z,3.1
2023-01-18T00:07:14.745Z,3.1
2023-01-18T00:08:21.305Z,3.1
2023-01-18T00:09:28.371Z,3.1
2023-01-18T00:10:35.534Z,3.1
2023-01-18T00:12:49.762Z,3.1
2023-01-18T00:13:56.303Z,3.1
2023-01-18T00:15:03.387Z,3.1
2023-01-18T00:16:10.593Z,3.1
2023-01-18T00:17:18.236Z,3.1
2023-01-18T00:18:24.720Z,3.1
2023-01-18T00:19:31.270Z,3.1
2023-01-18T00:20:38.381Z,3.1
2023-01-18T00:21:45.637Z,3.1
2023-01-18T00:22:52.621Z,3.1
2023-01-18T00:23:59.818Z,3.1
2023-01-18T00:25:06.300Z,3.1
2023-01-18T00:26:13.399Z,3.1
2023-01-18T00:27:20.585Z,3.1
2023-01-18T00:28:27.630Z,3.1
2023-01-18T00:29:34.771Z,3
2023-01-18T00:30:41.837Z,3
2023-01-18T00:31:48.495Z,3
2023-01-18T00:32:56.072Z,2.9
2023-01-18T00:34:02.623Z,2.9
2023-01-18T00:35:09.717Z,2.9
2023-01-18T00:36:16.317Z,3
2023-01-18T00:37:23.442Z,2.9
2023-01-18T00:38:30.597Z,3
2023-01-18T00:39:37.710Z,2.9
2023-01-18T00:40:44.699Z,2.9
2023-01-18T00:41:51.326Z,3
2023-01-18T00:42:58.894Z,2.9
2023-01-18T00:44:05.766Z,2.9
2023-01-18T00:45:12.598Z,3
2023-01-18T00:46:19.785Z,3
2023-01-18T00:47:26.298Z,3
2023-01-18T00:48:33.454Z,3
2023-01-18T00:49:40.635Z,3
2023-01-18T00:50:47.693Z,2.9
2023-01-18T00:51:55.616Z,3
2023-01-18T00:53:01.341Z,2.9
2023-01-18T00:54:08.444Z,2.9
2023-01-18T00:55:15.680Z,3
2023-01-18T00:56:22.739Z,3
2023-01-18T00:57:29.283Z,3
2023-01-18T00:58:36.340Z,3.1
2023-01-18T00:59:43.438Z,3.1
2023-01-18T01:00:50.678Z,3.2
2023-01-18T01:01:57.956Z,3.2
2023-01-18T01:03:04.244Z,3.1
2023-01-18T01:04:11.310Z,3.1
2023-01-18T01:05:18.964Z,3.1
2023-01-18T01:06:25.706Z,3.1
2023-01-18T01:07:32.635Z,3.1
2023-01-18T01:09:46.389Z,3.1
2023-01-18T01:10:53.540Z,3.1
2023-01-18T01:12:00.590Z,3
2023-01-18T01:13:07.683Z,3
2023-01-18T01:14:14.255Z,3
2023-01-18T01:16:28.549Z,3
2023-01-18T01:17:35.663Z,3
2023-01-18T01:18:42.719Z,3
2023-01-18T01:19:49.283Z,3
2023-01-18T01:20:56.463Z,3
2023-01-18T01:22:03.544Z,3
2023-01-18T01:23:10.603Z,3
2023-01-18T01:24:17.679Z,3.1
2023-01-18T01:25:24.297Z,3.1
2023-01-18T01:26:31.712Z,3.1
2023-01-18T01:27:38.533Z,3
2023-01-18T01:28:45.628Z,3.1
2023-01-18T01:29:52.703Z,3
2023-01-18T01:30:59.371Z,3
2023-01-18T01:32:06.561Z,3
2023-01-18T01:34:21.096Z,2.9
2023-01-18T01:35:27.689Z,2.9
2023-01-18T01:36:34.323Z,3
2023-01-18T01:37:41.413Z,2.9
2023-01-18T01:38:48.523Z,2.9
2023-01-18T01:39:55.654Z,2.9
2023-01-18T01:41:02.708Z,2.9
2023-01-18T01:42:09.317Z,2.8
2023-01-18T01:43:16.420Z,2.8
2023-01-18T01:44:23.471Z,2.8
2023-01-18T01:45:31.369Z,2.8
2023-01-18T01:46:37.748Z,2.7
2023-01-18T01:47:44.408Z,2.7
2023-01-18T01:48:51.424Z,2.6
2023-01-18T01:49:58.593Z,2.6
2023-01-18T01:51:05.650Z,2.6
2023-01-18T01:52:12.792Z,2.5
2023-01-18T01:53:19.331Z,2.5
2023-01-18T01:54:26.433Z,2.5
2023-01-18T01:55:33.522Z,2.5
2023-01-18T01:56:40.629Z,2.4
2023-01-18T01:57:47.791Z,2.4
2023-01-18T01:58:54.344Z,2.3
2023-01-18T02:00:01.421Z,2.3
2023-01-18T02:02:15.764Z,2.3
2023-01-18T02:03:22.709Z,2.2
2023-01-18T02:04:29.364Z,2.2
2023-01-18T02:05:36.452Z,2.2
2023-01-18T02:06:43.551Z,2.1
2023-01-18T02:07:50.678Z,2.1
2023-01-18T02:08:57.712Z,2.1
2023-01-18T02:10:04.394Z,2.1
2023-01-18T02:11:11.412Z,2.1
2023-01-18T02:12:19.655Z,2.1
2023-01-18T02:13:25.667Z,2.1
2023-01-18T02:14:32.728Z,2.1
2023-01-18T02:15:39.384Z,2
2023-01-18T02:16:46.561Z,2
2023-01-18T02:17:53.621Z,2
2023-01-18T02:20:07.816Z,1.9
2023-01-18T02:21:14.353Z,1.9
2023-01-18T02:22:21.518Z,1.9
2023-01-18T02:23:28.603Z,1.9
2023-01-18T02:24:35.700Z,1.9
2023-01-18T02:25:42.781Z,1.9
2023-01-18T02:26:49.385Z,1.8
2023-01-18T02:27:56.571Z,1.8
2023-01-18T02:29:03.530Z,1.8
2023-01-18T02:30:10.646Z,1.7
2023-01-18T02:31:17.262Z,1.7
2023-01-18T02:32:25.030Z,1.7
2023-01-18T02:33:31.502Z,1.7
2023-01-18T02:34:38.560Z,1.6
2023-01-18T02:35:46.250Z,1.6
2023-01-18T02:37:59.935Z,1.5
2023-01-18T02:39:06.524Z,1.5
2023-01-18T02:40:13.590Z,1.5
2023-01-18T02:41:20.704Z,1.5
2023-01-18T02:42:27.317Z,1.5
2023-01-18T02:43:34.450Z,1.5
2023-01-18T02:44:41.470Z,1.5
2023-01-18T02:45:48.608Z,1.5
2023-01-18T02:46:55.720Z,1.5
2023-01-18T02:48:02.250Z,1.4
2023-01-18T02:49:09.443Z,1.4
2023-01-18T02:50:16.530Z,1.4
2023-01-18T02:51:23.599Z,1.3
2023-01-18T02:52:30.731Z,1.3
2023-01-18T02:53:37.369Z,1.3
2023-01-18T02:54:44.443Z,1.3
2023-01-18T02:55:51.510Z,1.3
2023-01-18T02:56:58.612Z,1.3
2023-01-18T02:58:05.235Z,1.2
2023-01-18T02:58:05.755Z,1.2
2023-01-18T02:59:12.328Z,1.2
2023-01-18T03:00:19.446Z,1.2
2023-01-18T03:01:26.985Z,1.1
2023-01-18T03:02:33.638Z,1.1
2023-01-18T03:03:40.188Z,1.1
2023-01-18T03:04:47.350Z,1.1
2023-01-18T03:05:54.448Z,1.1
2023-01-18T03:07:01.523Z,1.1
2023-01-18T03:08:08.657Z,1
2023-01-18T03:09:15.762Z,1
2023-01-18T03:10:22.282Z,1
2023-01-18T03:11:29.410Z,0.9
2023-01-18T03:12:36.529Z,0.9
2023-01-18T03:13:44.203Z,0.9
2023-01-18T03:14:50.775Z,0.9
2023-01-18T03:15:57.367Z,0.8
2023-01-18T03:17:04.520Z,0.8
2023-01-18T03:18:11.544Z,0.7
2023-01-18T03:19:18.652Z,0.7
2023-01-18T03:20:25.836Z,0.7
2023-01-18T03:21:32.311Z,0.7
2023-01-18T03:23:46.641Z,0.7
2023-01-18T03:24:53.807Z,0.7
2023-01-18T03:26:00.706Z,0.7
2023-01-18T03:27:07.334Z,0.7
2023-01-18T03:28:14.471Z,0.6
2023-01-18T03:29:21.511Z,0.7
2023-01-18T03:30:28.838Z,0.7
2023-01-18T03:31:35.812Z,0.7
2023-01-18T03:32:42.406Z,0.7
2023-01-18T03:33:49.470Z,0.8
2023-01-18T03:34:56.556Z,0.8
2023-01-18T03:36:03.670Z,0.8
2023-01-18T03:37:10.800Z,0.8
2023-01-18T03:38:17.390Z,0.8
2023-01-18T03:39:24.448Z,0.8
2023-01-18T03:40:31.577Z,0.8
2023-01-18T03:41:39.224Z,0.8
2023-01-18T03:42:45.820Z,0.9
2023-01-18T03:43:53.678Z,0.9
2023-01-18T03:44:59.425Z,0.9
2023-01-18T03:46:06.686Z,0.8
2023-01-18T03:47:13.743Z,0.8
2023-01-18T03:48:20.747Z,0.8
2023-01-18T03:49:27.408Z,0.8
2023-01-18T03:50:34.463Z,0.8
2023-01-18T03:51:41.591Z,0.8
2023-01-18T03:52:48.676Z,0.8
2023-01-18T03:53:55.822Z,0.8
2023-01-18T03:55:02.379Z,0.8
2023-01-18T03:56:09.445Z,0.8
2023-01-18T03:57:16.671Z,0.8
2023-01-18T03:58:23.683Z,0.8
2023-01-18T03:59:30.807Z,0.8
2023-01-18T04:00:37.376Z,0.8
2023-01-18T04:01:44.540Z,0.8
2023-01-18T04:02:51.726Z,0.7
2023-01-18T04:03:58.729Z,0.8
2023-01-18T04:06:12.412Z,0.8
2023-01-18T04:07:19.576Z,0.8
2023-01-18T04:08:26.592Z,0.9
2023-01-18T04:09:33.672Z,0.9
2023-01-18T04:10:40.773Z,0.9
2023-01-18T04:11:47.389Z,0.9
2023-01-18T04:12:54.573Z,0.9
2023-01-18T04:14:01.576Z,1
2023-01-18T04:15:08.768Z,1
2023-01-18T04:16:15.948Z,1
2023-01-18T04:17:22.400Z,1
2023-01-18T04:18:29.586Z,1
2023-01-18T04:19:36.685Z,1
2023-01-18T04:20:43.700Z,1
2023-01-18T04:21:50.340Z,1
2023-01-18T04:22:57.868Z,1
2023-01-18T04:24:04.581Z,1
2023-01-18T04:25:11.590Z,1
2023-01-18T04:27:25.872Z,1.1
2023-01-18T04:28:32.409Z,1.1
2023-01-18T04:29:39.758Z,1.1
2023-01-18T04:30:46.671Z,1.1
2023-01-18T04:31:53.767Z,1.2
2023-01-18T04:33:01.371Z,1.2
2023-01-18T04:34:07.428Z,1.2
2023-01-18T04:35:14.571Z,1.2
2023-01-18T04:36:21.647Z,1.2
2023-01-18T04:37:28.844Z,1.2
2023-01-18T04:38:35.890Z,1.1
2023-01-18T04:39:42.430Z,1.1
2023-01-18T04:40:49.553Z,1.1
2023-01-18T04:41:57.383Z,1.1
2023-01-18T04:43:03.757Z,1.1
2023-01-18T04:44:10.821Z,1.1
2023-01-18T04:45:17.990Z,1.1
2023-01-18T04:46:24.578Z,1.1
2023-01-18T04:47:31.765Z,1.1
2023-01-18T04:48:38.766Z,1.1
2023-01-18T04:49:45.931Z,1.1
2023-01-18T04:50:52.468Z,1.1
2023-01-18T04:51:59.602Z,1.1
2023-01-18T04:53:06.711Z,1.1
2023-01-18T04:54:13.759Z,1
2023-01-18T04:55:20.887Z,1
2023-01-18T04:56:27.509Z,1
2023-01-18T04:57:34.611Z,1
2023-01-18T04:58:41.670Z,1
2023-01-18T04:59:48.811Z,1.1
2023-01-18T05:00:55.454Z,1.1
2023-01-18T05:02:02.494Z,1
2023-01-18T05:03:09.685Z,1
2023-01-18T05:05:24.061Z,1
2023-01-18T05:06:30.400Z,1.1
2023-01-18T05:07:37.577Z,1.1
2023-01-18T05:08:44.575Z,1.1
2023-01-18T05:09:51.714Z,1.1
2023-01-18T05:10:58.790Z,1.1
2023-01-18T05:12:05.438Z,1.1
2023-01-18T05:13:12.520Z,1.1
2023-01-18T05:14:19.605Z,1.1
2023-01-18T05:15:26.719Z,1.1
2023-01-18T05:16:33.937Z,1
2023-01-18T05:17:40.461Z,1.1
2023-01-18T05:18:47.543Z,1.1
2023-01-18T05:19:54.625Z,1.1
2023-01-18T05:21:01.713Z,1.1
2023-01-18T05:22:08.808Z,1.1
2023-01-18T05:23:15.389Z,1.2
2023-01-18T05:24:22.522Z,1.2
2023-01-18T05:25:29.631Z,1.2
2023-01-18T05:26:36.693Z,1.2
2023-01-18T05:27:43.952Z,1.3
2023-01-18T05:28:50.413Z,1.3
2023-01-18T05:31:04.627Z,1.3
2023-01-18T05:32:11.207Z,1.3
2023-01-18T05:34:25.456Z,1.3
2023-01-18T05:35:32.480Z,1.2
2023-01-18T05:36:39.638Z,1.2
2023-01-18T05:37:46.803Z,1.2
2023-01-18T05:38:53.792Z,1.2
2023-01-18T05:40:00.444Z,1.2
2023-01-18T05:41:07.571Z,1.2
2023-01-18T05:42:14.708Z,1.2
2023-01-18T05:43:21.773Z,1.2
2023-01-18T05:44:28.913Z,1.2
2023-01-18T05:45:35.492Z,1.2
2023-01-18T05:46:42.487Z,1.2
2023-01-18T05:47:49.627Z,1.2
2023-01-18T05:48:57.285Z,1.2
2023-01-18T05:50:03.838Z,1.2
2023-01-18T05:51:10.419Z,1.2
2023-01-18T05:52:17.646Z,1.1
2023-01-18T05:53:24.673Z,1.1
2023-01-18T05:54:31.707Z,1.1
2023-01-18T05:55:38.845Z,1.1
2023-01-18T05:56:45.472Z,1.2
2023-01-18T05:57:52.614Z,1.2
2023-01-18T05:58:59.696Z,1.2
2023-01-18T06:00:06.785Z,1.2
2023-01-18T06:01:13.924Z,1.3
2023-01-18T06:02:20.482Z,1.3
2023-01-18T06:03:27.553Z,1.4
2023-01-18T06:04:34.891Z,1.4
2023-01-18T06:05:41.723Z,1.4
2023-01-18T06:06:48.851Z,1.4
2023-01-18T06:07:55.552Z,1.4
2023-01-18T06:09:02.558Z,1.4
2023-01-18T06:10:10.175Z,1.4
2023-01-18T06:11:16.812Z,1.4
2023-01-18T06:12:23.983Z,1.4
2023-01-18T06:13:30.470Z,1.4
2023-01-18T06:14:37.556Z,1.4
2023-01-18T06:15:44.690Z,1.4
2023-01-18T06:16:51.785Z,1.4
2023-01-18T06:17:59.006Z,1.4
2023-01-18T06:19:05.432Z,1.4
2023-01-18T06:20:12.592Z,1.4
2023-01-18T06:21:19.710Z,1.4
2023-01-18T06:22:26.897Z,1.4
2023-01-18T06:23:33.875Z,1.4
2023-01-18T06:24:40.487Z,1.4
2023-01-18T06:25:47.628Z,1.4
2023-01-18T06:26:54.692Z,1.4
2023-01-18T06:28:01.860Z,1.4
2023-01-18T06:29:08.921Z,1.4
2023-01-18T06:30:15.522Z,1.4
2023-01-18T06:31:22.599Z,1.4
2023-01-18T06:32:29.796Z,1.4
2023-01-18T06:34:43.962Z,1.4
2023-01-18T06:35:50.494Z,1.4
2023-01-18T06:36:57.629Z,1.4
2023-01-18T06:38:04.785Z,1.4
2023-01-18T06:39:11.777Z,1.4
2023-01-18T06:40:18.979Z,1.4
2023-01-18T06:41:25.659Z,1.4
2023-01-18T06:42:32.605Z,1.4
2023-01-18T06:43:39.746Z,1.4
2023-01-18T06:44:46.802Z,1.4
2023-01-18T06:45:54.092Z,1.4
2023-01-18T06:47:00.500Z,1.4
2023-01-18T06:48:07.715Z,1.4
2023-01-18T06:49:14.776Z,1.4
2023-01-18T06:50:21.849Z,1.4
2023-01-18T06:51:28.974Z,1.4
2023-01-18T06:52:36.057Z,1.4
2023-01-18T06:53:42.575Z,1.4
2023-01-18T06:54:49.781Z,1.4
2023-01-18T06:55:56.991Z,1.4
2023-01-18T06:57:03.952Z,1.4
2023-01-18T06:58:10.535Z,1.4
2023-01-18T06:59:17.652Z,1.4
2023-01-18T07:00:24.726Z,1.4
2023-01-18T07:02:39.045Z,1.4
2023-01-18T07:03:45.579Z,1.4
2023-01-18T07:04:52.678Z,1.4
2023-01-18T07:05:59.778Z,1.5
2023-01-18T07:07:06.848Z,1.6
2023-01-18T07:08:13.500Z,1.7
2023-01-18T07:09:20.505Z,1.8
2023-01-18T07:10:27.680Z,1.8
2023-01-18T07:11:34.797Z,1.9
2023-01-18T07:12:41.866Z,2
2023-01-18T07:13:48.434Z,2
2023-01-18T07:14:55.509Z,2
2023-01-18T07:16:02.692Z,2
2023-01-18T07:17:09.803Z,2
2023-01-18T07:18:16.907Z,2.1
2023-01-18T07:19:23.480Z,2.1
2023-01-18T07:20:30.517Z,2.1
2023-01-18T07:21:37.781Z,2.2
2023-01-18T07:22:44.771Z,2.1
2023-01-18T07:23:53.699Z,2.1
2023-01-18T07:24:58.576Z,2.1
2023-01-18T07:26:05.663Z,2
2023-01-18T07:27:12.730Z,2
2023-01-18T07:28:19.870Z,2
2023-01-18T07:29:27.051Z,2
2023-01-18T07:30:33.521Z,1.9
2023-01-18T07:31:40.604Z,1.9
2023-01-18T07:32:47.751Z,1.9
2023-01-18T07:33:54.826Z,1.9
2023-01-18T07:35:01.889Z,1.8
2023-01-18T07:36:08.737Z,1.8
2023-01-18T07:37:15.627Z,1.8
2023-01-18T07:38:23.256Z,1.8
2023-01-18T07:39:29.836Z,1.8
2023-01-18T07:40:37.047Z,1.8
2023-01-18T07:41:43.508Z,1.8
2023-01-18T07:42:50.644Z,1.8
2023-01-18T07:43:57.730Z,1.7
2023-01-18T07:45:04.845Z,1.7
2023-01-18T07:46:11.971Z,1.7
2023-01-18T07:47:18.527Z,1.7
2023-01-18T07:48:25.623Z,1.8
2023-01-18T07:49:32.702Z,1.8
2023-01-18T07:50:39.796Z,1.9
2023-01-18T07:51:47.068Z,2
2023-01-18T07:52:53.509Z,2
2023-01-18T07:54:00.586Z,2.1
2023-01-18T07:55:07.712Z,2.2
2023-01-18T07:56:14.798Z,2.2
2023-01-18T07:57:21.933Z,2.2
2023-01-18T07:58:28.639Z,2.2
2023-01-18T07:59:35.672Z,2.3
2023-01-18T08:00:42.710Z,2.3
2023-01-18T08:01:49.906Z,2.3
2023-01-18T08:02:59.096Z,2.3
2023-01-18T08:04:04.054Z,2.3
2023-01-18T08:05:10.727Z,2.3
2023-01-18T08:06:17.729Z,2.3
2023-01-18T08:07:24.832Z,2.4
2023-01-18T08:08:31.890Z,2.4
2023-01-18T08:09:38.570Z,2.4
2023-01-18T08:10:45.613Z,2.4
2023-01-18T08:11:52.692Z,2.4
2023-01-18T08:13:00.296Z,2.4
2023-01-18T08:14:06.984Z,2.4
2023-01-18T08:15:13.492Z,2.3
2023-01-18T08:16:20.657Z,2.3
2023-01-18T08:17:27.943Z,2.4
2023-01-18T08:18:34.903Z,2.4
2023-01-18T08:19:41.933Z,2.4
2023-01-18T08:20:48.563Z,2.4
2023-01-18T08:21:55.686Z,2.4
2023-01-18T08:23:02.780Z,2.4
2023-01-18T08:24:09.908Z,2.5
2023-01-18T08:25:17.015Z,2.4
2023-01-18T08:26:23.522Z,2.4
2023-01-18T08:27:30.734Z,2.4
2023-01-18T08:28:37.855Z,2.4
2023-01-18T08:30:52.199Z,2.4
2023-01-18T08:31:58.552Z,2.4
2023-01-18T08:33:05.695Z,2.4
2023-01-18T08:34:12.808Z,2.4
2023-01-18T08:35:20.713Z,2.4
2023-01-18T08:36:27.028Z,2.4
2023-01-18T08:37:33.603Z,2.4
2023-01-18T08:38:40.679Z,2.5
2023-01-18T08:39:47.814Z,2.5
2023-01-18T08:40:54.871Z,2.6
2023-01-18T08:42:02.579Z,2.6
2023-01-18T08:43:08.636Z,2.6
2023-01-18T08:44:15.734Z,2.6
2023-01-18T08:45:22.778Z,2.5
2023-01-18T08:46:30.039Z,2.5
2023-01-18T08:47:36.502Z,2.4
2023-01-18T08:48:43.575Z,2.4
2023-01-18T08:49:50.722Z,2.4
2023-01-18T08:50:57.852Z,2.4
2023-01-18T08:52:04.904Z,2.4
2023-01-18T08:53:12.062Z,2.4
2023-01-18T08:54:18.660Z,2.4
2023-01-18T08:55:25.710Z,2.4
2023-01-18T08:56:32.788Z,2.4
2023-01-18T08:57:39.983Z,2.4
2023-01-18T08:58:47.158Z,2.3
2023-01-18T09:01:00.785Z,2.2
2023-01-18T09:02:07.924Z,2.2
2023-01-18T09:03:15.047Z,2.1
2023-01-18T09:04:21.490Z,2
2023-01-18T09:05:28.719Z,2
2023-01-18T09:06:37.777Z,1.9
2023-01-18T09:07:42.874Z,1.8
2023-01-18T09:08:49.967Z,1.8
2023-01-18T09:09:56.552Z,1.7
2023-01-18T09:11:03.598Z,1.6
2023-01-18T09:12:10.678Z,1.6
2023-01-18T09:13:17.857Z,1.6
2023-01-18T09:14:24.969Z,1.6
2023-01-18T09:15:32.030Z,1.6
2023-01-18T09:16:38.607Z,1.6
2023-01-18T09:17:45.741Z,1.6
2023-01-18T09:18:52.802Z,1.6
2023-01-18T09:19:59.963Z,1.6
2023-01-18T09:21:07.081Z,1.5
2023-01-18T09:22:13.622Z,1.5
2023-01-18T09:23:20.737Z,1.5
2023-01-18T09:24:27.819Z,1.5
2023-01-18T09:25:34.974Z,1.5
2023-01-18T09:26:42.947Z,1.5
2023-01-18T09:27:48.662Z,1.4
2023-01-18T09:28:55.823Z,1.5
2023-01-18T09:30:02.839Z,1.4
2023-01-18T09:31:10.052Z,1.4
2023-01-18T09:32:16.614Z,1.5
2023-01-18T09:33:27.391Z,1.5
2023-01-18T09:34:30.752Z,1.5
2023-01-18T09:35:37.805Z,1.5
2023-01-18T09:36:45.026Z,1.5
2023-01-18T09:37:51.631Z,1.5
2023-01-18T09:38:58.637Z,1.5
2023-01-18T09:40:05.795Z,1.5
2023-01-18T09:41:14.790Z,1.5
2023-01-18T09:42:19.918Z,1.5
2023-01-18T09:43:26.541Z,1.5
2023-01-18T09:44:33.606Z,1.5
2023-01-18T09:45:40.772Z,1.5
2023-01-18T09:46:47.962Z,1.5
2023-01-18T09:47:55.014Z,1.5
2023-01-18T09:49:01.556Z,1.6
2023-01-18T09:50:08.653Z,1.6
2023-01-18T09:51:15.810Z,1.6
2023-01-18T09:52:22.834Z,1.6
2023-01-18T09:53:30.390Z,1.6
2023-01-18T09:54:36.583Z,1.6
2023-01-18T09:55:43.674Z,1.6
2023-01-18T09:56:50.824Z,1.6
2023-01-18T09:57:57.970Z,1.6
2023-01-18T09:59:05.021Z,1.6
2023-01-18T10:00:11.524Z,1.6
2023-01-18T10:01:18.803Z,1.6
2023-01-18T10:02:25.900Z,1.6
2023-01-18T10:04:40.134Z,1.6
2023-01-18T10:05:46.616Z,1.6
2023-01-18T10:06:53.692Z,1.6
2023-01-18T10:08:00.811Z,1.6
2023-01-18T10:09:07.887Z,1.6
2023-01-18T10:10:15.019Z,1.6
2023-01-18T10:11:21.603Z,1.6
2023-01-18T10:12:28.699Z,1.6
2023-01-18T10:13:35.895Z,1.6
2023-01-18T10:14:42.890Z,1.6
2023-01-18T10:15:50.036Z,1.6
2023-01-18T10:16:56.619Z,1.6
2023-01-18T10:18:03.748Z,1.6
2023-01-18T10:19:10.762Z,1.6
2023-01-18T10:20:17.983Z,1.6
2023-01-18T10:21:25.049Z,1.6
2023-01-18T10:22:31.611Z,1.6
2023-01-18T10:23:38.754Z,1.6
2023-01-18T10:24:45.873Z,1.6
2023-01-18T10:25:52.912Z,1.6
2023-01-18T10:27:00.086Z,1.6
2023-01-18T10:28:06.710Z,1.6
2023-01-18T10:29:13.712Z,1.6
2023-01-18T10:30:20.880Z,1.6
2023-01-18T10:31:27.988Z,1.6
2023-01-18T10:32:34.581Z,1.6
2023-01-18T10:33:41.637Z,1.6
2023-01-18T10:34:49.273Z,1.6
2023-01-18T10:35:55.872Z,1.6
2023-01-18T10:37:02.937Z,1.6
2023-01-18T10:38:09.514Z,1.6
2023-01-18T10:39:16.621Z,1.6
2023-01-18T10:40:23.687Z,1.6
2023-01-18T10:41:30.796Z,1.6
2023-01-18T10:42:38.006Z,1.6
2023-01-18T10:43:44.553Z,1.6
2023-01-18T10:44:51.658Z,1.6
2023-01-18T10:45:58.779Z,1.7
2023-01-18T10:47:05.890Z,1.8
2023-01-18T10:48:12.991Z,1.8
2023-01-18T10:49:20.090Z,1.9
2023-01-18T10:50:26.702Z,2
2023-01-18T10:51:33.760Z,2
2023-01-18T10:52:40.862Z,2.1
2023-01-18T10:53:47.982Z,2.1
2023-01-18T10:54:55.096Z,2.2
2023-01-18T10:56:01.710Z,2.2
2023-01-18T10:57:10.014Z,2.2
2023-01-18T10:58:15.951Z,2.2
2023-01-18T10:59:22.984Z,2.2
2023-01-18T11:00:29.563Z,2.2
2023-01-18T11:01:36.859Z,2.2
2023-01-18T11:02:43.912Z,2.2
2023-01-18T11:03:54.016Z,2.3
2023-01-18T11:04:57.997Z,2.3
2023-01-18T11:06:04.543Z,2.4
2023-01-18T11:08:18.810Z,2.4
2023-01-18T11:09:25.863Z,2.4
2023-01-18T11:10:32.932Z,2.4
2023-01-18T11:11:39.559Z,2.4
2023-01-18T11:12:46.739Z,2.5
2023-01-18T11:13:53.788Z,2.5
2023-01-18T11:15:00.840Z,2.5
2023-01-18T11:16:08.009Z,2.6
2023-01-18T11:17:14.735Z,2.6
2023-01-18T11:18:21.688Z,2.6
2023-01-18T11:19:28.873Z,2.6
2023-01-18T11:20:35.901Z,2.6
2023-01-18T11:21:42.995Z,2.6
2023-01-18T11:22:49.577Z,2.6
2023-01-18T11:23:56.689Z,2.6
2023-01-18T11:25:03.752Z,2.6
2023-01-18T11:26:10.889Z,2.7
2023-01-18T11:27:18.013Z,2.7
2023-01-18T11:28:24.753Z,2.7
2023-01-18T11:29:31.696Z,2.8
2023-01-18T11:30:38.828Z,2.8
2023-01-18T11:31:46.029Z,2.8
2023-01-18T11:32:52.968Z,2.8
2023-01-18T11:33:59.640Z,2.8
2023-01-18T11:35:06.696Z,2.8
2023-01-18T11:36:13.792Z,2.8
2023-01-18T11:37:20.878Z,2.8
2023-01-18T11:38:28.095Z,2.8
2023-01-18T11:39:34.649Z,2.8
2023-01-18T11:40:41.740Z,2.8
2023-01-18T11:41:48.852Z,2.8
2023-01-18T11:42:55.970Z,2.8
2023-01-18T11:44:03.005Z,2.8
2023-01-18T11:45:09.607Z,2.8
2023-01-18T11:46:16.854Z,2.8
2023-01-18T11:47:23.801Z,2.8
2023-01-18T11:48:30.890Z,2.8
2023-01-18T11:49:38.054Z,2.8
2023-01-18T11:50:44.632Z,2.8
2023-01-18T11:51:51.734Z,2.8
2023-01-18T11:52:58.899Z,2.8
2023-01-18T11:54:05.899Z,2.7
2023-01-18T11:55:13.027Z,2.7
2023-01-18T11:56:19.650Z,2.7
2023-01-18T11:57:26.751Z,2.7
2023-01-18T11:58:33.891Z,2.7
2023-01-18T11:59:40.913Z,2.6
2023-01-18T12:00:48.096Z,2.7
2023-01-18T12:01:54.659Z,2.7
2023-01-18T12:03:02.257Z,2.6
2023-01-18T12:04:08.833Z,2.6
2023-01-18T12:05:15.951Z,2.5
2023-01-18T12:06:23.003Z,2.4
2023-01-18T12:07:29.718Z,2.4
2023-01-18T12:08:36.824Z,2.3
2023-01-18T12:09:43.844Z,2.3
2023-01-18T12:12:09.782Z,2.3
2023-01-18T12:13:04.732Z,2.2
2023-01-18T12:14:12.127Z,2.2
2023-01-18T12:15:18.905Z,2.2
2023-01-18T12:16:26.116Z,2.1
2023-01-18T12:17:33.081Z,2.2
2023-01-18T12:18:39.704Z,2.1
2023-01-18T12:19:46.784Z,2.1
2023-01-18T12:20:53.881Z,2.1
2023-01-18T12:22:01.022Z,2.1
2023-01-18T12:23:08.164Z,2.2
2023-01-18T12:24:14.701Z,2.2
2023-01-18T12:25:21.741Z,2.2
2023-01-18T12:26:28.860Z,2.2
2023-01-18T12:27:36.141Z,2.3
2023-01-18T12:28:43.151Z,2.3
2023-01-18T12:29:49.669Z,2.4
2023-01-18T12:30:56.761Z,2.4
2023-01-18T12:32:03.912Z,2.5
2023-01-18T12:33:11.048Z,2.5
2023-01-18T12:34:18.139Z,2.5
2023-01-18T12:35:25.336Z,2.5
2023-01-18T12:36:31.249Z,2.5
2023-01-18T12:37:38.929Z,2.6
2023-01-18T12:38:46.025Z,2.6
2023-01-18T12:39:53.100Z,2.6
2023-01-18T12:40:59.722Z,2.6
2023-01-18T12:42:06.773Z,2.6
2023-01-18T12:43:13.903Z,2.6
2023-01-18T12:44:20.999Z,2.7
2023-01-18T12:45:27.610Z,2.6
2023-01-18T12:46:34.735Z,2.6
2023-01-18T12:47:41.749Z,2.5
2023-01-18T12:48:48.950Z,2.5
2023-01-18T12:49:56.041Z,2.5
2023-01-18T12:51:02.548Z,2.5
2023-01-18T12:52:18.593Z,2.5
2023-01-18T12:53:16.975Z,2.4
2023-01-18T12:54:23.923Z,2.5
2023-01-18T12:55:31.034Z,2.5
2023-01-18T12:56:37.711Z,2.4
2023-01-18T12:57:46.603Z,2.4
2023-01-18T12:58:51.833Z,2.4
2023-01-18T12:59:58.963Z,2.4
2023-01-18T13:01:06.126Z,2.4
2023-01-18T13:02:12.654Z,2.4
2023-01-18T13:03:19.896Z,2.4
2023-01-18T13:04:26.869Z,2.4
2023-01-18T13:05:33.944Z,2.4
2023-01-18T13:06:41.060Z,2.4
2023-01-18T13:07:47.656Z,2.4
2023-01-18T13:08:54.742Z,2.4
2023-01-18T13:10:01.787Z,2.5
2023-01-18T13:11:08.985Z,2.5
2023-01-18T13:12:16.016Z,2.5
2023-01-18T13:13:22.635Z,2.5
2023-01-18T13:15:36.947Z,2.5
2023-01-18T13:16:43.973Z,2.5
2023-01-18T13:17:51.012Z,2.5
2023-01-18T13:18:57.692Z,2.5
2023-01-18T13:20:04.791Z,2.5
2023-01-18T13:21:12.089Z,2.5
2023-01-18T13:22:19.003Z,2.5
2023-01-18T13:23:26.136Z,2.4
2023-01-18T13:24:32.612Z,2.4
2023-01-18T13:25:39.753Z,2.3
2023-01-18T13:26:46.900Z,2.3
2023-01-18T13:27:54.016Z,2.3
2023-01-18T13:29:01.077Z,2.2
2023-01-18T13:30:07.691Z,2.2
2023-01-18T13:32:21.872Z,2.1
2023-01-18T13:33:29.037Z,2.1
2023-01-18T13:34:47.383Z,2.1
2023-01-18T13:35:42.653Z,2.1
2023-01-18T13:36:49.763Z,2.1
2023-01-18T13:37:57.000Z,2.1
2023-01-18T13:39:03.973Z,2.2
2023-01-18T13:40:11.071Z,2.2
2023-01-18T13:41:17.668Z,2.2
2023-01-18T13:42:24.762Z,2.2
2023-01-18T13:43:31.837Z,2.3
2023-01-18T13:44:39.023Z,2.3
2023-01-18T13:45:46.084Z,2.3
2023-01-18T13:46:52.653Z,2.3
2023-01-18T13:48:00.208Z,2.3
2023-01-18T13:49:06.922Z,2.3
2023-01-18T13:50:13.993Z,2.3
2023-01-18T13:51:21.106Z,2.3
2023-01-18T13:52:27.734Z,2.4
2023-01-18T13:53:34.809Z,2.4
2023-01-18T13:54:41.899Z,2.5
2023-01-18T13:55:49.031Z,2.5
2023-01-18T13:56:56.070Z,2.5
2023-01-18T13:58:02.761Z,2.5
2023-01-18T13:59:09.776Z,2.5
2023-01-18T14:00:16.886Z,2.5
2023-01-18T14:01:24.151Z,2.5
2023-01-18T14:02:31.095Z,2.5
2023-01-18T14:03:37.819Z,2.4
2023-01-18T14:04:44.825Z,2.3
2023-01-18T14:05:51.932Z,2.3
2023-01-18T14:06:59.032Z,2.2
2023-01-18T14:08:06.166Z,2.1
2023-01-18T14:09:12.694Z,2.1
2023-01-18T14:10:19.842Z,2
2023-01-18T14:11:26.935Z,2
2023-01-18T14:12:33.974Z,1.9
2023-01-18T14:13:41.133Z,1.9
2023-01-18T14:14:47.694Z,1.9
2023-01-18T14:15:54.958Z,1.9
2023-01-18T14:17:02.077Z,1.9
2023-01-18T14:19:16.221Z,1.9
2023-01-18T14:20:22.734Z,1.9
2023-01-18T14:21:29.893Z,1.9
2023-01-18T14:22:36.930Z,1.9
2023-01-18T14:23:44.045Z,1.9
2023-01-18T14:24:51.152Z,1.9
2023-01-18T14:25:57.769Z,1.9
2023-01-18T14:27:04.840Z,1.9
2023-01-18T14:28:11.938Z,1.9
2023-01-18T14:29:19.084Z,1.9
2023-01-18T14:30:26.160Z,1.9
2023-01-18T14:31:32.745Z,1.9
2023-01-18T14:32:39.911Z,1.9
2023-01-18T14:33:47.053Z,1.9
2023-01-18T14:34:54.009Z,1.9
2023-01-18T14:36:01.296Z,1.9
2023-01-18T14:37:07.741Z,1.9
2023-01-18T14:38:18.343Z,1.9
2023-01-18T14:39:21.968Z,1.9
2023-01-18T14:40:28.579Z,1.9
2023-01-18T14:40:29.058Z,1.9
2023-01-18T14:41:35.655Z,1.9
2023-01-18T14:42:42.759Z,1.9
2023-01-18T14:43:49.902Z,1.9
2023-01-18T14:44:58.642Z,1.9
2023-01-18T14:46:04.105Z,1.9
2023-01-18T14:47:23.195Z,2
2023-01-18T14:48:17.810Z,2.1
2023-01-18T14:49:24.913Z,2.1
2023-01-18T14:50:32.268Z,2.1
2023-01-18T14:51:39.119Z,2.1
2023-01-18T14:52:45.706Z,2.1
2023-01-18T14:53:52.768Z,2.1
2023-01-18T14:54:59.914Z,2.2
2023-01-18T14:56:07.009Z,2.1
2023-01-18T14:57:14.243Z,2.1
2023-01-18T14:58:20.731Z,2.1
2023-01-18T15:00:34.935Z,2
2023-01-18T15:01:42.168Z,2
2023-01-18T15:02:49.121Z,2.1
2023-01-18T15:03:55.761Z,2
2023-01-18T15:05:02.791Z,2.1
2023-01-18T15:06:09.962Z,2.1
2023-01-18T15:07:17.007Z,2
2023-01-18T15:08:24.237Z,2.1
2023-01-18T15:09:30.639Z,2.1
2023-01-18T15:10:37.832Z,2.1
2023-01-18T15:11:44.982Z,2.1
2023-01-18T15:12:52.010Z,2.1
2023-01-18T15:13:59.180Z,2.2
2023-01-18T15:15:05.696Z,2.2
2023-01-18T15:16:12.793Z,2.2
2023-01-18T15:17:19.890Z,2.1
2023-01-18T15:18:27.057Z,2.1
2023-01-18T15:19:34.227Z,2.1
2023-01-18T15:20:40.695Z,2
2023-01-18T15:22:54.887Z,1.9
2023-01-18T15:24:02.024Z,1.9
2023-01-18T15:25:09.117Z,1.8
2023-01-18T15:26:15.694Z,1.7
2023-01-18T15:27:22.776Z,1.7
2023-01-18T15:28:30.003Z,1.7
2023-01-18T15:29:37.062Z,1.6
2023-01-18T15:30:44.294Z,1.6
2023-01-18T15:31:50.735Z,1.6
2023-01-18T15:32:58.362Z,1.6
2023-01-18T15:34:04.911Z,1.6
2023-01-18T15:35:11.992Z,1.6
2023-01-18T15:36:19.123Z,1.7
2023-01-18T15:37:25.710Z,1.7
2023-01-18T15:38:32.833Z,1.6
2023-01-18T15:39:39.968Z,1.7
2023-01-18T15:40:47.055Z,1.7
2023-01-18T15:41:54.184Z,1.7
2023-01-18T15:43:00.799Z,1.7
2023-01-18T15:44:07.842Z,1.7
2023-01-18T15:45:14.972Z,1.7
2023-01-18T15:46:22.051Z,1.7
2023-01-18T15:47:29.171Z,1.7
2023-01-18T15:48:35.790Z,1.7
2023-01-18T15:49:42.856Z,1.7
2023-01-18T15:50:49.927Z,1.7
2023-01-18T15:51:57.181Z,1.7
2023-01-18T15:53:04.149Z,1.7
2023-01-18T15:54:10.747Z,1.7